Time;durP1;ratioP1;P1;durP2;ratioP2;P2;SDS_P1;SDS_P2;PMS_P1;PMS_P2;Temp;Humidity;BMP_temperature;BMP_pressure;BME280_temperature;BME280_humidity;BME280_pressure;Samples;Min_cycle;Max_cycle;Signal;HPM_P1;HPM_P2
2023/10/18 00:01:01;;;;;;;25.17;12.57;;;;;;;;;;5071877;28;20031;-73
2023/10/18 00:03:31;;;;;;;23.80;12.17;;;;;;;;;;5055281;28;20107;-73
2023/10/18 00:05:59;;;;;;;24.43;11.57;;;;;;;;;;5071692;28;20337;-73
2023/10/18 00:08:26;;;;;;;26.57;12.60;;;;;;;;;;5054617;28;20453;-74
2023/10/18 00:10:55;;;;;;;25.43;12.97;;;;;;;;;;5055415;28;20024;-73
2023/10/18 00:13:25;;;;;;;28.10;12.37;;;;;;;;;;5055046;28;20388;-72
2023/10/18 00:15:52;;;;;;;28.60;13.43;;;;;;;;;;5039814;28;20035;-73
2023/10/18 00:18:20;;;;;;;25.27;12.03;;;;;;;;;;5035473;28;20558;-73
2023/10/18 00:20:46;;;;;;;26.37;12.70;;;;;;;;;;5055298;28;20131;-74
2023/10/18 00:23:12;;;;;;;24.87;11.57;;;;;;;;;;5055126;28;20492;-72
2023/10/18 00:25:37;;;;;;;30.00;12.50;;;;;;;;;;5072535;28;20059;-73
2023/10/18 00:28:04;;;;;;;29.27;13.00;;;;;;;;;;5071699;28;20056;-73
2023/10/18 00:30:30;;;;;;;25.97;13.30;;;;;;;;;;5053890;28;20456;-73
2023/10/18 00:32:57;;;;;;;20.27;12.43;;;;;;;;;;5054458;28;20062;-74
2023/10/18 00:35:31;;;;;;;25.87;12.73;;;;;;;;;;5073763;28;20688;-73
2023/10/18 00:37:57;;;;;;;25.90;13.07;;;;;;;;;;5074512;28;20028;-74
2023/10/18 00:43:27;;;;;;;29.37;12.73;;;;;;;;;;5071825;28;20056;-73
2023/10/18 00:45:54;;;;;;;31.50;13.07;;;;;;;;;;5071188;28;20024;-71
2023/10/18 00:48:27;;;;;;;29.93;13.47;;;;;;;;;;5070503;28;20024;-73
2023/10/18 00:50:55;;;;;;;32.00;12.67;;;;;;;;;;5053302;28;20036;-73
2023/10/18 00:53:31;;;;;;;25.83;12.93;;;;;;;;;;5053457;28;20020;-73
2023/10/18 00:56:00;;;;;;;29.57;14.03;;;;;;;;;;5069458;28;20070;-72
2023/10/18 00:58:27;;;;;;;26.10;13.37;;;;;;;;;;5053162;28;20071;-73
2023/10/18 01:00:56;;;;;;;25.37;12.87;;;;;;;;;;5052913;28;20397;-73
2023/10/18 01:03:32;;;;;;;26.70;12.43;;;;;;;;;;5070921;28;20036;-73
2023/10/18 01:06:20;;;;;;;29.00;13.93;;;;;;;;;;5037913;28;20127;-75
2023/10/18 01:08:49;;;;;;;25.70;13.50;;;;;;;;;;5071291;28;20055;-73
2023/10/18 01:11:22;;;;;;;30.60;12.40;;;;;;;;;;5059144;28;20071;-72
2023/10/18 01:13:48;;;;;;;24.47;13.17;;;;;;;;;;5066962;28;20060;-73
2023/10/18 01:16:23;;;;;;;28.10;16.20;;;;;;;;;;5066321;28;20021;-72
2023/10/18 01:18:50;;;;;;;26.93;13.47;;;;;;;;;;5051234;28;20074;-72
2023/10/18 01:21:18;;;;;;;24.47;12.87;;;;;;;;;;5071600;28;20024;-73
2023/10/18 01:23:49;;;;;;;27.07;12.90;;;;;;;;;;5071387;28;20025;-72
2023/10/18 01:26:16;;;;;;;30.23;13.80;;;;;;;;;;5055319;28;20024;-72
2023/10/18 01:28:43;;;;;;;30.23;13.80;;;;;;;;;;5056090;28;20029;-72
2023/10/18 01:31:09;;;;;;;25.63;13.17;;;;;;;;;;5073977;28;20025;-73
2023/10/18 01:33:43;;;;;;;27.33;14.23;;;;;;;;;;5073420;28;20653;-71
2023/10/18 01:36:12;;;;;;;24.87;13.57;;;;;;;;;;5057100;28;20115;-73
2023/10/18 01:38:39;;;;;;;29.37;12.80;;;;;;;;;;5073464;28;20029;-71
2023/10/18 01:44:07;;;;;;;27.07;12.60;;;;;;;;;;5013839;28;20098;-72
2023/10/18 01:46:48;;;;;;;26.87;12.93;;;;;;;;;;5053672;28;20025;-72
2023/10/18 01:49:19;;;;;;;28.33;13.60;;;;;;;;;;5045675;28;20029;-74
2023/10/18 01:51:53;;;;;;;31.77;13.90;;;;;;;;;;5038027;28;20033;-72
2023/10/18 01:54:25;;;;;;;32.43;13.57;;;;;;;;;;5072933;28;20124;-73
2023/10/18 01:56:54;;;;;;;32.42;13.95;;;;;;;;;;5073391;28;20082;-72
2023/10/18 01:59:27;;;;;;;31.77;13.23;;;;;;;;;;5068995;28;20028;-72
2023/10/18 02:01:53;;;;;;;32.70;14.60;;;;;;;;;;5054400;28;20025;-72
2023/10/18 02:04:24;;;;;;;34.07;14.83;;;;;;;;;;5067547;28;20029;-73
2023/10/18 02:06:50;;;;;;;26.13;14.03;;;;;;;;;;5052882;28;20044;-72
2023/10/18 02:09:16;;;;;;;26.27;13.83;;;;;;;;;;5072160;28;20024;-73
2023/10/18 02:11:43;;;;;;;22.67;13.47;;;;;;;;;;5074811;28;20081;-72
2023/10/18 02:14:10;;;;;;;30.33;14.87;;;;;;;;;;5058160;28;20109;-72
2023/10/18 02:16:36;;;;;;;37.40;14.07;;;;;;;;;;5058234;28;20150;-72
2023/10/18 02:19:02;;;;;;;29.07;14.03;;;;;;;;;;5075476;28;20163;-72
2023/10/18 02:21:27;;;;;;;24.17;12.70;;;;;;;;;;5057671;28;20020;-74
2023/10/18 02:23:53;;;;;;;31.47;14.53;;;;;;;;;;5073822;28;20396;-72
2023/10/18 02:26:31;;;;;;;31.27;14.00;;;;;;;;;;5075084;28;20429;-74
2023/10/18 02:31:57;;;;;;;25.90;13.53;;;;;;;;;;5065714;28;20032;-72
2023/10/18 02:34:25;;;;;;;27.07;12.20;;;;;;;;;;5073454;28;20024;-73
2023/10/18 02:36:55;;;;;;;27.73;14.87;;;;;;;;;;5074606;28;20017;-72
2023/10/18 02:39:25;;;;;;;29.37;14.33;;;;;;;;;;5074985;28;20111;-71
2023/10/18 02:41:54;;;;;;;30.88;13.25;;;;;;;;;;5075947;28;20108;-73
2023/10/18 02:44:22;;;;;;;31.90;13.63;;;;;;;;;;5057421;28;20185;-74
2023/10/18 02:46:54;;;;;;;25.70;12.90;;;;;;;;;;5072151;28;20055;-72
2023/10/18 02:49:22;;;;;;;28.40;14.03;;;;;;;;;;5055484;28;20032;-73
2023/10/18 02:51:48;;;;;;;27.20;13.83;;;;;;;;;;5039023;28;20493;-72
2023/10/18 02:54:17;;;;;;;30.47;14.47;;;;;;;;;;5073439;28;20142;-74
2023/10/18 02:56:50;;;;;;;31.00;15.63;;;;;;;;;;5055119;28;20043;-74
2023/10/18 02:59:17;;;;;;;29.57;13.90;;;;;;;;;;5072969;28;20025;-74
2023/10/18 03:01:44;;;;;;;29.63;13.50;;;;;;;;;;5072458;28;20378;-73
2023/10/18 03:04:18;;;;;;;26.87;14.27;;;;;;;;;;5072917;28;20025;-72
2023/10/18 03:06:45;;;;;;;31.50;14.57;;;;;;;;;;5055405;28;20360;-72
2023/10/18 03:11:56;;;;;;;27.70;13.60;;;;;;;;;;5074175;28;20067;-73
2023/10/18 03:17:14;;;;;;;31.48;13.95;;;;;;;;;;5073703;28;20384;-74
2023/10/18 03:19:50;;;;;;;30.17;14.07;;;;;;;;;;5055303;28;20047;-74
2023/10/18 03:22:20;;;;;;;31.33;13.63;;;;;;;;;;5053978;28;20408;-72
2023/10/18 03:24:58;;;;;;;27.80;14.07;;;;;;;;;;5054796;28;20342;-73
2023/10/18 03:27:29;;;;;;;28.03;14.00;;;;;;;;;;5055186;28;20113;-72
2023/10/18 03:29:58;;;;;;;24.83;13.87;;;;;;;;;;5054934;28;20028;-73
2023/10/18 03:32:25;;;;;;;28.73;13.80;;;;;;;;;;5054583;28;20059;-75
2023/10/18 03:34:53;;;;;;;29.83;13.43;;;;;;;;;;5055263;28;20020;-74
2023/10/18 03:37:24;;;;;;;25.13;13.30;;;;;;;;;;5071682;28;20060;-74
2023/10/18 03:39:53;;;;;;;32.53;13.40;;;;;;;;;;5055176;28;20077;-71
2023/10/18 03:42:31;;;;;;;27.40;11.53;;;;;;;;;;5071181;28;20105;-73
2023/10/18 03:45:10;;;;;;;33.70;15.33;;;;;;;;;;5054517;28;20499;-72
2023/10/18 03:47:37;;;;;;;29.13;13.20;;;;;;;;;;5055739;28;20024;-74
2023/10/18 03:50:08;;;;;;;31.67;13.63;;;;;;;;;;5055713;28;20029;-73
2023/10/18 03:52:34;;;;;;;27.27;13.80;;;;;;;;;;5056137;28;20104;-74
2023/10/18 03:57:44;;;;;;;31.00;14.33;;;;;;;;;;5074751;28;20023;-75
2023/10/18 04:02:53;;;;;;;31.67;15.13;;;;;;;;;;5057731;28;20036;-74
2023/10/18 04:08:20;;;;;;;30.37;14.13;;;;;;;;;;5059548;28;20040;-73
2023/10/18 04:10:58;;;;;;;33.73;14.77;;;;;;;;;;5064518;28;20024;-73
2023/10/18 04:13:27;;;;;;;34.50;13.60;;;;;;;;;;5051164;28;20044;-73
2023/10/18 04:16:11;;;;;;;30.03;13.77;;;;;;;;;;5053407;28;20037;-72
2023/10/18 04:18:42;;;;;;;30.60;13.27;;;;;;;;;;5055667;28;20118;-73
2023/10/18 04:21:13;;;;;;;32.72;15.00;;;;;;;;;;5071940;28;20054;-74
2023/10/18 04:23:49;;;;;;;32.63;15.57;;;;;;;;;;5055445;28;20047;-74
2023/10/18 04:26:18;;;;;;;32.03;15.60;;;;;;;;;;5071328;28;20059;-73
2023/10/18 04:28:45;;;;;;;31.13;14.60;;;;;;;;;;5054641;28;20588;-73
2023/10/18 04:31:21;;;;;;;31.30;15.10;;;;;;;;;;5072075;28;20077;-73
2023/10/18 04:33:50;;;;;;;33.43;14.73;;;;;;;;;;5070481;28;20544;-73
2023/10/18 04:36:20;;;;;;;29.83;13.87;;;;;;;;;;5054098;28;20469;-74
2023/10/18 04:38:47;;;;;;;32.30;14.60;;;;;;;;;;5054028;28;20032;-74
2023/10/18 04:41:24;;;;;;;29.80;14.07;;;;;;;;;;5070099;28;20032;-73
2023/10/18 04:44:05;;;;;;;34.77;15.33;;;;;;;;;;5061378;28;20036;-73
2023/10/18 04:46:39;;;;;;;26.58;12.82;;;;;;;;;;5071370;28;20085;-72
2023/10/18 04:51:43;;;;;;;30.00;13.60;;;;;;;;;;5073699;28;20170;-73
2023/10/18 04:56:46;;;;;;;31.97;13.67;;;;;;;;;;5072172;28;20027;-73
2023/10/18 05:04:34;;;;;;;32.80;13.80;;;;;;;;;;5074749;28;20023;-83
2023/10/18 05:07:14;;;;;;;26.87;14.20;;;;;;;;;;5070106;28;20155;-82
2023/10/18 05:09:43;;;;;;;34.87;15.03;;;;;;;;;;5076086;28;20021;-82
2023/10/18 05:17:32;;;;;;;32.20;14.97;;;;;;;;;;5075652;28;20460;-82
2023/10/18 05:20:09;;;;;;;32.40;14.40;;;;;;;;;;5074592;28;20036;-78
2023/10/18 05:22:41;;;;;;;33.30;13.70;;;;;;;;;;5058112;28;20033;-82
2023/10/18 05:41:21;;;;;;;33.80;15.53;;;;;;;;;;5102830;28;20035;-84
2023/10/18 05:43:48;;;;;;;31.97;16.07;;;;;;;;;;5089987;28;20024;-84
2023/10/18 05:46:20;;;;;;;34.28;15.57;;;;;;;;;;5084315;28;20694;-84
2023/10/18 05:48:46;;;;;;;46.73;15.13;;;;;;;;;;5088662;28;20088;-83
2023/10/18 05:51:26;;;;;;;28.87;14.73;;;;;;;;;;5086891;28;20028;-81
2023/10/18 05:53:59;;;;;;;46.97;15.20;;;;;;;;;;5105394;28;20100;-80
2023/10/18 05:56:34;;;;;;;31.83;14.53;;;;;;;;;;5083879;28;20092;-79
2023/10/18 06:02:10;;;;;;;37.17;14.20;;;;;;;;;;5072696;28;20102;-78
2023/10/18 06:04:42;;;;;;;34.03;15.00;;;;;;;;;;5085189;28;20063;-83
2023/10/18 06:07:13;;;;;;;33.13;14.77;;;;;;;;;;5070854;28;20035;-79
2023/10/18 06:09:46;;;;;;;26.63;14.20;;;;;;;;;;5069755;28;20032;-84
2023/10/18 06:12:30;;;;;;;40.43;14.43;;;;;;;;;;5080918;28;20024;-80
2023/10/18 06:15:10;;;;;;;24.43;12.77;;;;;;;;;;5081107;28;20113;-80
2023/10/18 06:17:46;;;;;;;29.37;13.27;;;;;;;;;;5067473;28;20039;-77
2023/10/18 06:20:29;;;;;;;29.40;13.93;;;;;;;;;;5080176;28;20035;-82
2023/10/18 06:23:09;;;;;;;29.07;12.73;;;;;;;;;;5093416;28;20119;-83
2023/10/18 06:25:44;;;;;;;25.57;13.47;;;;;;;;;;5094192;28;20038;-83
2023/10/18 06:28:10;;;;;;;36.40;14.13;;;;;;;;;;5070166;28;20092;-77
2023/10/18 06:30:40;;;;;;;24.77;12.87;;;;;;;;;;5084061;28;20016;-75
2023/10/18 06:33:09;;;;;;;24.30;12.93;;;;;;;;;;5059336;28;20127;-78
2023/10/18 06:36:11;;;;;;;29.80;14.73;;;;;;;;;;5077317;28;20031;-77
2023/10/18 06:38:30;;;;;;;27.80;14.83;;;;;;;;;;5081544;28;20044;-77
2023/10/18 06:41:03;;;;;;;26.93;13.93;;;;;;;;;;5085924;28;20030;-78
2023/10/18 06:43:30;;;;;;;26.93;13.30;;;;;;;;;;5080008;28;20024;-76
2023/10/18 06:45:57;;;;;;;28.50;14.27;;;;;;;;;;5065668;28;20124;-77
2023/10/18 06:48:30;;;;;;;30.50;14.30;;;;;;;;;;5079274;28;20229;-78
2023/10/18 06:51:00;;;;;;;31.30;13.67;;;;;;;;;;5071622;28;20058;-78
2023/10/18 06:53:26;;;;;;;32.20;14.30;;;;;;;;;;5080347;28;20028;-79
2023/10/18 06:55:58;;;;;;;30.47;14.47;;;;;;;;;;5082132;28;20709;-80
2023/10/18 07:00:53;;;;;;;27.37;14.37;;;;;;;;;;5083845;28;20024;-76
2023/10/18 07:03:27;;;;;;;27.67;13.83;;;;;;;;;;5057460;28;20109;-80
2023/10/18 07:05:56;;;;;;;29.27;15.13;;;;;;;;;;5045423;28;20029;-81
2023/10/18 07:08:32;;;;;;;33.90;16.27;;;;;;;;;;5030507;28;20106;-80
2023/10/18 07:11:00;;;;;;;27.97;14.17;;;;;;;;;;5049412;28;20024;-76
2023/10/18 07:13:33;;;;;;;29.00;15.10;;;;;;;;;;5062629;28;20567;-80
2023/10/18 07:16:12;;;;;;;31.23;14.53;;;;;;;;;;5046268;28;20385;-78
2023/10/18 07:18:44;;;;;;;28.27;15.03;;;;;;;;;;5065264;28;20021;-77
2023/10/18 07:21:11;;;;;;;31.67;15.25;;;;;;;;;;5056656;28;20028;-74
2023/10/18 07:23:37;;;;;;;39.10;15.33;;;;;;;;;;5041150;28;20384;-75
2023/10/18 07:26:13;;;;;;;34.23;16.00;;;;;;;;;;5062908;28;20036;-77
2023/10/18 07:28:57;;;;;;;30.77;15.97;;;;;;;;;;5067400;28;20321;-77
2023/10/18 07:31:32;;;;;;;28.17;14.40;;;;;;;;;;5056268;28;20116;-75
2023/10/18 07:34:02;;;;;;;29.97;16.13;;;;;;;;;;5063699;28;20021;-76
2023/10/18 07:36:28;;;;;;;31.83;15.80;;;;;;;;;;5059436;28;20107;-78
2023/10/18 07:38:57;;;;;;;40.03;16.27;;;;;;;;;;5056879;28;20128;-76
2023/10/18 07:41:28;;;;;;;29.87;15.43;;;;;;;;;;5050041;28;20039;-77
2023/10/18 07:43:56;;;;;;;26.77;14.25;;;;;;;;;;5062261;28;20104;-76
2023/10/18 07:46:25;;;;;;;39.80;17.20;;;;;;;;;;5067178;28;20036;-79
2023/10/18 07:48:53;;;;;;;32.23;15.97;;;;;;;;;;5064073;28;20098;-77
2023/10/18 07:51:23;;;;;;;37.37;18.00;;;;;;;;;;5062011;28;20024;-76
2023/10/18 07:53:56;;;;;;;34.10;15.67;;;;;;;;;;5064454;28;20052;-79
2023/10/18 07:56:29;;;;;;;31.97;15.97;;;;;;;;;;5067359;28;20028;-78
2023/10/18 08:01:51;;;;;;;50.80;19.10;;;;;;;;;;5064790;28;20142;-75
2023/10/18 08:04:20;;;;;;;42.77;16.47;;;;;;;;;;5081253;28;20032;-76
2023/10/18 08:06:50;;;;;;;46.17;17.93;;;;;;;;;;5070575;28;20036;-77
2023/10/18 08:09:28;;;;;;;66.90;19.40;;;;;;;;;;5061133;28;20186;-79
2023/10/18 08:12:07;;;;;;;50.13;16.40;;;;;;;;;;5057389;28;20024;-77
2023/10/18 08:14:33;;;;;;;43.70;19.90;;;;;;;;;;5059930;28;20370;-75
2023/10/18 08:17:08;;;;;;;35.53;16.37;;;;;;;;;;5054917;28;20032;-75
2023/10/18 08:19:43;;;;;;;41.57;16.30;;;;;;;;;;5053818;28;20042;-73
2023/10/18 08:24:37;;;;;;;31.50;16.93;;;;;;;;;;5054880;28;20127;-75
2023/10/18 08:27:10;;;;;;;32.93;17.17;;;;;;;;;;5051773;28;20039;-73
2023/10/18 08:29:39;;;;;;;47.97;17.70;;;;;;;;;;5032598;28;20807;-76
2023/10/18 08:32:17;;;;;;;32.83;16.53;;;;;;;;;;5052675;28;20028;-73
2023/10/18 08:34:45;;;;;;;32.10;15.23;;;;;;;;;;5036541;28;20350;-76
2023/10/18 08:37:18;;;;;;;35.83;15.97;;;;;;;;;;5051440;28;20082;-75
2023/10/18 08:39:55;;;;;;;37.20;17.17;;;;;;;;;;5042988;28;20040;-74
2023/10/18 08:42:25;;;;;;;29.17;15.10;;;;;;;;;;5049314;28;20045;-79
2023/10/18 08:45:04;;;;;;;34.33;17.67;;;;;;;;;;5043128;28;20476;-75
2023/10/18 08:47:34;;;;;;;33.83;15.93;;;;;;;;;;5057003;28;20028;-76
2023/10/18 08:50:00;;;;;;;37.80;16.50;;;;;;;;;;5054864;28;20032;-80
2023/10/18 08:52:35;;;;;;;40.10;21.30;;;;;;;;;;5040041;28;20044;-78
2023/10/18 08:55:22;;;;;;;38.10;18.07;;;;;;;;;;5038788;28;20067;-77
2023/10/18 08:57:48;;;;;;;38.00;16.87;;;;;;;;;;5055352;28;20044;-80
2023/10/18 09:01:02;;;;;;;39.67;16.53;;;;;;;;;;5051376;28;20134;-79
2023/10/18 09:03:03;;;;;;;45.40;14.70;;;;;;;;;;5051865;28;20075;-78
2023/10/18 09:05:30;;;;;;;24.03;12.33;;;;;;;;;;5055613;28;20132;-78
2023/10/18 09:08:05;;;;;;;24.93;12.93;;;;;;;;;;5068077;28;20066;-77
2023/10/18 09:18:21;;;;;;;19.77;10.43;;;;;;;;;;5057992;28;20047;-79
2023/10/18 09:20:48;;;;;;;23.77;11.52;;;;;;;;;;5056901;28;20050;-76
2023/10/18 09:23:21;;;;;;;17.58;10.35;;;;;;;;;;5054961;28;20113;-79
2023/10/18 09:26:00;;;;;;;23.65;11.25;;;;;;;;;;5040500;28;20198;-77
2023/10/18 09:28:25;;;;;;;31.27;12.40;;;;;;;;;;5062993;28;20777;-74
2023/10/18 09:31:01;;;;;;;24.27;10.82;;;;;;;;;;5065383;28;20025;-79
2023/10/18 09:33:31;;;;;;;23.08;9.63;;;;;;;;;;5058925;28;20036;-78
2023/10/18 09:36:01;;;;;;;18.55;10.02;;;;;;;;;;5056925;28;20469;-76
2023/10/18 09:38:39;;;;;;;19.75;10.38;;;;;;;;;;5033162;28;20093;-74
2023/10/18 09:41:06;;;;;;;19.55;9.93;;;;;;;;;;5050594;28;20145;-76
2023/10/18 09:44:01;;;;;;;20.92;9.73;;;;;;;;;;5021359;28;20056;-74
2023/10/18 09:46:26;;;;;;;20.35;10.20;;;;;;;;;;5053766;28;20032;-75
2023/10/18 09:48:57;;;;;;;16.15;9.80;;;;;;;;;;5033175;28;20020;-78
2023/10/18 09:51:24;;;;;;;15.68;9.85;;;;;;;;;;5057656;28;20024;-76
2023/10/18 09:53:56;;;;;;;19.98;9.73;;;;;;;;;;5052598;28;20564;-79
2023/10/18 09:56:45;;;;;;;16.77;10.45;;;;;;;;;;5057604;28;20048;-76
2023/10/18 09:59:25;;;;;;;35.67;21.45;;;;;;;;;;5027142;28;20071;-78
2023/10/18 10:04:18;;;;;;;16.17;10.73;;;;;;;;;;5058359;28;20039;-76
2023/10/18 10:06:47;;;;;;;20.02;10.40;;;;;;;;;;5058009;28;20051;-75
2023/10/18 10:09:17;;;;;;;20.70;10.82;;;;;;;;;;5039224;28;20127;-77
2023/10/18 10:11:45;;;;;;;17.08;10.52;;;;;;;;;;5079421;28;20096;-79
2023/10/18 10:14:16;;;;;;;21.10;12.05;;;;;;;;;;5043872;28;20423;-77
2023/10/18 10:17:06;;;;;;;16.45;10.73;;;;;;;;;;5061998;28;20074;-75
2023/10/18 10:19:37;;;;;;;18.80;10.70;;;;;;;;;;5059037;28;20124;-75
2023/10/18 10:22:06;;;;;;;21.40;10.38;;;;;;;;;;5025593;28;20040;-75
2023/10/18 10:24:43;;;;;;;17.30;10.20;;;;;;;;;;5059304;28;20040;-77
2023/10/18 10:28:13;;;;;;;21.25;10.18;;;;;;;;;;5046170;28;20037;-77
2023/10/18 10:30:19;;;;;;;18.23;10.13;;;;;;;;;;5050058;28;20062;-75
2023/10/18 10:32:46;;;;;;;19.30;10.80;;;;;;;;;;5061933;28;20040;-77
2023/10/18 10:35:27;;;;;;;15.30;10.65;;;;;;;;;;5039160;28;20126;-76
2023/10/18 10:38:13;;;;;;;22.25;10.02;;;;;;;;;;5042848;28;20040;-75
2023/10/18 10:40:52;;;;;;;19.80;9.23;;;;;;;;;;5035988;28;20046;-78
2023/10/18 10:44:20;;;;;;;18.73;9.20;;;;;;;;;;5038298;28;20110;-76
2023/10/18 10:46:46;;;;;;;18.38;9.77;;;;;;;;;;5041286;28;20047;-74
2023/10/18 10:49:58;;;;;;;13.57;9.20;;;;;;;;;;5052982;28;20460;-76
2023/10/18 10:52:29;;;;;;;15.15;9.15;;;;;;;;;;5034798;28;20117;-74
2023/10/18 10:55:18;;;;;;;17.23;9.77;;;;;;;;;;5056865;28;20028;-76
2023/10/18 10:57:47;;;;;;;13.13;8.18;;;;;;;;;;5067858;28;20112;-76
2023/10/18 11:03:24;;;;;;;16.55;9.77;;;;;;;;;;5061035;28;20434;-82
2023/10/18 11:05:53;;;;;;;17.10;9.77;;;;;;;;;;5058893;28;20020;-76
2023/10/18 11:08:20;;;;;;;15.52;9.90;;;;;;;;;;5062452;28;20029;-76
2023/10/18 11:10:46;;;;;;;14.07;9.73;;;;;;;;;;5055404;28;20055;-74
2023/10/18 11:13:14;;;;;;;14.32;9.25;;;;;;;;;;5066456;28;20070;-75
2023/10/18 11:15:42;;;;;;;15.98;9.68;;;;;;;;;;5070007;28;20111;-74
2023/10/18 11:18:28;;;;;;;14.60;8.63;;;;;;;;;;5057508;28;20032;-76
2023/10/18 11:24:01;;;;;;;13.30;8.88;;;;;;;;;;5056109;28;20032;-76
2023/10/18 11:26:27;;;;;;;17.33;9.55;;;;;;;;;;5051175;28;20047;-77
2023/10/18 11:29:08;;;;;;;14.70;8.32;;;;;;;;;;5066976;28;20047;-75
2023/10/18 11:31:37;;;;;;;10.60;7.30;;;;;;;;;;5066974;28;20564;-81
2023/10/18 11:34:07;;;;;;;19.27;8.75;;;;;;;;;;5065773;28;20059;-82
2023/10/18 11:36:34;;;;;;;14.00;8.45;;;;;;;;;;5057548;28;20471;-78
2023/10/18 11:39:07;;;;;;;13.93;9.00;;;;;;;;;;5063739;28;20039;-77
2023/10/18 11:41:41;;;;;;;17.27;9.57;;;;;;;;;;5050481;28;20052;-80
2023/10/18 11:44:24;;;;;;;17.92;9.07;;;;;;;;;;5061224;28;20048;-77
2023/10/18 11:46:51;;;;;;;15.00;7.65;;;;;;;;;;5065800;28;20120;-78
2023/10/18 11:49:20;;;;;;;12.27;7.78;;;;;;;;;;5049105;28;20082;-77
2023/10/18 11:51:48;;;;;;;14.30;9.15;;;;;;;;;;5045296;28;20055;-78
2023/10/18 11:54:37;;;;;;;13.95;8.65;;;;;;;;;;5063232;28;20064;-77
2023/10/18 11:57:15;;;;;;;13.57;8.48;;;;;;;;;;5053904;28;20309;-76
2023/10/18 11:59:58;;;;;;;14.40;8.20;;;;;;;;;;5051903;28;20035;-76
2023/10/18 12:02:28;;;;;;;11.88;8.63;;;;;;;;;;5068218;28;20040;-79
2023/10/18 12:04:56;;;;;;;15.90;8.73;;;;;;;;;;5073995;28;20032;-77
2023/10/18 12:07:22;;;;;;;11.98;8.10;;;;;;;;;;5071115;28;20089;-76
2023/10/18 12:09:53;;;;;;;13.35;8.25;;;;;;;;;;5075168;28;20020;-74
2023/10/18 12:12:23;;;;;;;13.63;8.35;;;;;;;;;;5085065;28;20031;-75
2023/10/18 12:14:50;;;;;;;16.27;8.73;;;;;;;;;;5070962;28;20440;-76
2023/10/18 12:17:17;;;;;;;27.67;9.10;;;;;;;;;;5076067;28;20135;-75
2023/10/18 12:19:46;;;;;;;16.38;8.77;;;;;;;;;;5069448;28;20142;-76
2023/10/18 12:22:15;;;;;;;15.15;8.80;;;;;;;;;;5070235;28;20033;-79
2023/10/18 12:24:53;;;;;;;15.00;7.88;;;;;;;;;;5056644;28;20404;-77
2023/10/18 12:27:34;;;;;;;28.95;10.07;;;;;;;;;;5048267;28;20067;-76
2023/10/18 12:32:55;;;;;;;14.65;8.93;;;;;;;;;;4990590;28;20063;-79
2023/10/18 12:35:21;;;;;;;17.23;9.30;;;;;;;;;;5041203;28;20040;-77
2023/10/18 12:37:51;;;;;;;13.13;8.50;;;;;;;;;;5055770;28;20805;-80
2023/10/18 12:41:07;;;;;;;14.77;9.68;;;;;;;;;;5059240;28;20094;-75
2023/10/18 12:43:17;;;;;;;14.05;8.68;;;;;;;;;;5042695;28;20501;-77
2023/10/18 12:45:47;;;;;;;22.10;10.68;;;;;;;;;;5058880;28;20650;-79
2023/10/18 12:48:21;;;;;;;18.40;9.38;;;;;;;;;;5060126;28;20322;-75
2023/10/18 12:50:54;;;;;;;17.05;8.95;;;;;;;;;;5054958;28;20040;-79
2023/10/18 12:56:31;;;;;;;14.77;8.98;;;;;;;;;;5061644;28;20038;-78
2023/10/18 12:59:38;;;;;;;12.75;9.05;;;;;;;;;;5063671;28;20036;-77
2023/10/18 13:04:17;;;;;;;15.88;9.63;;;;;;;;;;5066689;28;20035;-78
2023/10/18 13:06:46;;;;;;;20.83;8.63;;;;;;;;;;5064745;28;20037;-78
2023/10/18 13:09:19;;;;;;;15.02;9.63;;;;;;;;;;5042255;28;20098;-78
2023/10/18 13:14:29;;;;;;;16.48;9.57;;;;;;;;;;5059409;28;20099;-77
2023/10/18 13:16:56;;;;;;;14.48;9.15;;;;;;;;;;5058709;28;20232;-77
2023/10/18 13:19:24;;;;;;;17.40;8.77;;;;;;;;;;5041885;28;20105;-78
2023/10/18 13:21:51;;;;;;;14.52;8.63;;;;;;;;;;5063128;28;20032;-76
2023/10/18 13:24:17;;;;;;;15.98;8.90;;;;;;;;;;5059675;28;20017;-77
2023/10/18 13:26:47;;;;;;;12.52;8.43;;;;;;;;;;5037957;28;20062;-79
2023/10/18 13:31:45;;;;;;;11.63;7.97;;;;;;;;;;5059464;28;20024;-76
2023/10/18 13:34:21;;;;;;;13.80;8.93;;;;;;;;;;5047713;28;20329;-76
2023/10/18 13:36:51;;;;;;;12.20;8.48;;;;;;;;;;5043710;28;20027;-78
2023/10/18 13:39:17;;;;;;;12.40;8.10;;;;;;;;;;5056317;28;20041;-77
2023/10/18 13:41:47;;;;;;;13.68;8.68;;;;;;;;;;5064460;28;20032;-80
2023/10/18 13:44:13;;;;;;;15.63;9.68;;;;;;;;;;5046808;28;20082;-78
2023/10/18 13:46:39;;;;;;;26.38;10.48;;;;;;;;;;5078267;28;20044;-77
2023/10/18 13:49:08;;;;;;;16.13;10.50;;;;;;;;;;5048499;28;20131;-76
2023/10/18 13:51:37;;;;;;;15.48;8.85;;;;;;;;;;5062584;28;20043;-78
2023/10/18 13:54:07;;;;;;;14.88;9.10;;;;;;;;;;5069208;28;20684;-78
2023/10/18 13:56:34;;;;;;;16.63;8.82;;;;;;;;;;5057615;28;20032;-75
2023/10/18 13:59:01;;;;;;;14.98;9.10;;;;;;;;;;5076246;28;20028;-73
2023/10/18 14:01:28;;;;;;;18.20;8.48;;;;;;;;;;5069052;28;20036;-74
2023/10/18 14:03:55;;;;;;;14.65;8.98;;;;;;;;;;5077560;28;20089;-73
2023/10/18 14:06:22;;;;;;;22.27;11.70;;;;;;;;;;5054298;28;20052;-74
2023/10/18 14:08:48;;;;;;;15.98;9.32;;;;;;;;;;5073441;28;20429;-75
2023/10/18 14:11:14;;;;;;;12.88;8.82;;;;;;;;;;5074010;28;20117;-75
2023/10/18 14:13:45;;;;;;;13.52;8.82;;;;;;;;;;5056160;28;20032;-76
2023/10/18 14:16:17;;;;;;;15.55;8.45;;;;;;;;;;5048592;28;20154;-76
2023/10/18 14:18:48;;;;;;;13.48;9.25;;;;;;;;;;5047930;28;20102;-76
2023/10/18 14:21:15;;;;;;;13.80;8.80;;;;;;;;;;5053065;28;20040;-74
2023/10/18 14:23:48;;;;;;;15.35;9.32;;;;;;;;;;5036976;28;20044;-76
2023/10/18 14:26:18;;;;;;;13.23;8.63;;;;;;;;;;5062569;28;20358;-74
2023/10/18 14:28:48;;;;;;;11.07;8.20;;;;;;;;;;5064757;28;20151;-75
2023/10/18 14:31:13;;;;;;;14.80;8.25;;;;;;;;;;5036144;28;20017;-76
2023/10/18 14:33:40;;;;;;;20.90;8.93;;;;;;;;;;5035440;28;20036;-76
2023/10/18 14:36:14;;;;;;;14.48;8.90;;;;;;;;;;5062460;28;20032;-74
2023/10/18 14:38:41;;;;;;;12.73;8.52;;;;;;;;;;5053327;28;20032;-75
2023/10/18 14:41:13;;;;;;;13.98;8.55;;;;;;;;;;5045500;28;20373;-75
2023/10/18 14:43:47;;;;;;;19.38;9.18;;;;;;;;;;5055774;28;20047;-76
2023/10/18 14:46:17;;;;;;;14.05;8.43;;;;;;;;;;5059556;28;20024;-75
2023/10/18 14:48:46;;;;;;;16.88;8.70;;;;;;;;;;5051193;28;20040;-76
2023/10/18 14:51:12;;;;;;;16.42;9.07;;;;;;;;;;5053193;28;20025;-76
2023/10/18 14:53:40;;;;;;;13.20;8.52;;;;;;;;;;5071759;28;20025;-79
2023/10/18 14:56:12;;;;;;;15.18;8.23;;;;;;;;;;5060989;28;20038;-80
2023/10/18 14:58:40;;;;;;;14.23;8.73;;;;;;;;;;5056788;28;20055;-79
2023/10/18 15:01:06;;;;;;;31.10;12.00;;;;;;;;;;5029223;28;20033;-79
2023/10/18 15:03:32;;;;;;;13.77;8.50;;;;;;;;;;5054459;28;20025;-79
2023/10/18 15:05:58;;;;;;;15.02;8.07;;;;;;;;;;5051383;28;20035;-81
2023/10/18 15:08:24;;;;;;;14.27;9.25;;;;;;;;;;5052183;28;20064;-78
2023/10/18 15:10:50;;;;;;;12.55;8.30;;;;;;;;;;5052530;28;20548;-78
2023/10/18 15:13:17;;;;;;;90.38;46.85;;;;;;;;;;5035139;28;20031;-79
2023/10/18 15:15:43;;;;;;;47.92;24.20;;;;;;;;;;5069330;28;20143;-79
2023/10/18 15:18:08;;;;;;;23.98;12.38;;;;;;;;;;5072205;28;20084;-82
2023/10/18 15:20:37;;;;;;;19.27;10.20;;;;;;;;;;5072431;28;20025;-80
2023/10/18 15:23:05;;;;;;;19.58;9.55;;;;;;;;;;5054061;28;20460;-81
2023/10/18 15:25:31;;;;;;;12.65;8.40;;;;;;;;;;5071023;28;20028;-81
2023/10/18 15:27:57;;;;;;;22.15;11.98;;;;;;;;;;5053991;28;20024;-82
2023/10/18 15:30:22;;;;;;;20.75;10.50;;;;;;;;;;5054085;28;20059;-79
2023/10/18 15:32:51;;;;;;;13.95;8.57;;;;;;;;;;5072233;28;20025;-79
2023/10/18 15:35:21;;;;;;;12.68;8.25;;;;;;;;;;5072272;28;20085;-79
2023/10/18 15:37:46;;;;;;;15.50;7.80;;;;;;;;;;5075696;28;20033;-78
2023/10/18 15:40:13;;;;;;;11.57;7.80;;;;;;;;;;5074474;28;20032;-79
2023/10/18 15:42:40;;;;;;;17.35;8.23;;;;;;;;;;5079132;28;20020;-80
2023/10/18 15:45:11;;;;;;;11.18;7.88;;;;;;;;;;5061976;28;20028;-78
2023/10/18 15:47:38;;;;;;;15.10;7.53;;;;;;;;;;5089004;28;20078;-79
2023/10/18 15:50:08;;;;;;;12.07;7.90;;;;;;;;;;5088837;28;20028;-79
2023/10/18 15:52:36;;;;;;;15.02;8.38;;;;;;;;;;5074309;28;20110;-80
2023/10/18 15:55:10;;;;;;;15.25;8.82;;;;;;;;;;5054687;28;20086;-80
2023/10/18 15:57:36;;;;;;;17.02;8.13;;;;;;;;;;5071480;28;20361;-82
2023/10/18 16:00:07;;;;;;;12.60;7.55;;;;;;;;;;5054608;28;20032;-80
2023/10/18 16:02:33;;;;;;;24.45;9.35;;;;;;;;;;5072430;28;20165;-79
2023/10/18 16:04:59;;;;;;;23.33;8.52;;;;;;;;;;5064465;28;20488;-78
2023/10/18 16:07:24;;;;;;;16.95;8.23;;;;;;;;;;5073653;28;20071;-79
2023/10/18 16:09:50;;;;;;;15.85;8.60;;;;;;;;;;5056656;28;20524;-82
2023/10/18 16:12:16;;;;;;;16.05;8.15;;;;;;;;;;5081459;28;20322;-79
2023/10/18 16:14:42;;;;;;;10.95;7.30;;;;;;;;;;5070887;28;20126;-81
2023/10/18 16:17:07;;;;;;;11.18;7.65;;;;;;;;;;5090117;28;20031;-78
2023/10/18 16:19:35;;;;;;;13.23;7.38;;;;;;;;;;5089573;28;20024;-78